Time;durP1;ratioP1;P1;durP2;ratioP2;P2;SDS_P1;SDS_P2;PMS_P1;PMS_P2;Temp;Humidity;BMP_temperature;BMP_pressure;BME280_temperature;BME280_humidity;BME280_pressure;Samples;Min_cycle;Max_cycle;Signal;HPM_P1;HPM_P2
2022/09/30 00:01:32;;;;;;;4.47;3.35;;;8.00;99.90;;;;;;5105056;28;20040;-69
2022/09/30 00:04:00;;;;;;;9.45;8.55;;;7.90;99.90;;;;;;5102383;28;20122;-69
2022/09/30 00:06:27;;;;;;;9.00;8.10;;;7.90;99.90;;;;;;5096740;28;20047;-69
2022/09/30 00:08:53;;;;;;;4.78;3.13;;;7.90;99.90;;;;;;5100569;28;20448;-69
2022/09/30 00:11:31;;;;;;;9.02;8.20;;;7.80;99.90;;;;;;5108884;28;20043;-69
2022/09/30 00:13:57;;;;;;;3.95;3.60;;;7.80;99.90;;;;;;5099848;28;20559;-69
2022/09/30 00:16:24;;;;;;;8.68;7.93;;;7.80;99.90;;;;;;5108688;28;20085;-69
2022/09/30 00:18:50;;;;;;;5.72;3.67;;;7.70;99.90;;;;;;5110290;28;20059;-69
2022/09/30 00:21:16;;;;;;;8.40;7.60;;;7.70;99.90;;;;;;5110706;27;20077;-69
2022/09/30 00:23:45;;;;;;;4.95;2.95;;;7.70;99.90;;;;;;5095095;28;20051;-69
2022/09/30 00:26:16;;;;;;;8.48;7.72;;;7.70;99.90;;;;;;5101676;28;20417;-69
2022/09/30 00:28:42;;;;;;;3.42;2.38;;;7.60;99.90;;;;;;5104859;28;20104;-69
2022/09/30 00:31:13;;;;;;;5.13;3.58;;;7.60;99.90;;;;;;5092478;28;20233;-69
2022/09/30 00:33:39;;;;;;;8.98;8.18;;;7.60;99.90;;;;;;5109127;28;20073;-69
2022/09/30 00:36:05;;;;;;;5.93;3.97;;;7.60;99.90;;;;;;5109023;28;20035;-69
2022/09/30 00:38:31;;;;;;;9.35;8.55;;;7.50;99.90;;;;;;5104682;28;20054;-69
2022/09/30 00:40:58;;;;;;;9.13;8.18;;;7.50;99.90;;;;;;5108975;28;20050;-68
2022/09/30 00:43:41;;;;;;;5.35;3.72;;;7.50;99.90;;;;;;5109163;28;20043;-69
2022/09/30 00:46:24;;;;;;;8.93;7.93;;;7.40;99.90;;;;;;5109794;28;20039;-68
2022/09/30 00:48:53;;;;;;;5.10;3.33;;;7.40;99.90;;;;;;5108982;28;20524;-68
2022/09/30 00:51:39;;;;;;;;;;;7.40;99.90;;;;;;5099277;28;20115;-68
2022/09/30 00:54:13;;;;;;;4.72;3.38;;;7.30;99.90;;;;;;5103701;28;20026;-68
2022/09/30 00:56:42;;;;;;;11.88;10.55;;;7.30;99.90;;;;;;5101527;28;20051;-68
2022/09/30 00:59:14;;;;;;;8.13;4.85;;;7.30;99.90;;;;;;5100133;28;20101;-68
2022/09/30 01:01:41;;;;;;;12.65;11.45;;;7.30;99.90;;;;;;5109838;28;20389;-68
2022/09/30 01:04:19;;;;;;;4.95;3.55;;;7.30;99.90;;;;;;5107954;28;20036;-68
2022/09/30 01:06:46;;;;;;;6.22;4.18;;;7.30;99.90;;;;;;5108658;28;20058;-68
2022/09/30 01:09:12;;;;;;;4.68;4.05;;;7.20;99.90;;;;;;5097358;28;20059;-67
2022/09/30 01:11:38;;;;;;;5.28;3.72;;;7.20;99.90;;;;;;5108233;28;20404;-67
2022/09/30 01:14:18;;;;;;;13.15;11.95;;;7.20;99.90;;;;;;5105266;28;20048;-67
2022/09/30 01:16:53;;;;;;;7.07;4.95;;;7.20;99.90;;;;;;5108705;28;20489;-67
2022/09/30 01:19:27;;;;;;;7.38;3.97;;;7.10;99.90;;;;;;5098018;28;20066;-67
2022/09/30 01:22:05;;;;;;;4.35;3.53;;;7.10;99.90;;;;;;5105087;28;20131;-68
2022/09/30 01:25:10;;;;;;;6.82;4.47;;;7.10;99.90;;;;;;5107748;28;20052;-67
2022/09/30 01:27:55;;;;;;;12.38;11.23;;;7.10;99.90;;;;;;5093010;28;20054;-67
2022/09/30 01:30:46;;;;;;;5.00;3.92;;;7.00;99.90;;;;;;5104115;28;20039;-67
2022/09/30 01:33:43;;;;;;;12.80;11.52;;;7.10;99.90;;;;;;5081206;28;20134;-67
2022/09/30 01:36:22;;;;;;;8.70;6.20;;;7.00;99.90;;;;;;5085609;28;20661;-67
2022/09/30 01:39:10;;;;;;;13.45;12.18;;;7.00;99.90;;;;;;5089973;28;20496;-67
2022/09/30 01:41:49;;;;;;;14.27;12.88;;;7.10;99.90;;;;;;5108721;28;20038;-67
2022/09/30 01:44:28;;;;;;;8.23;4.88;;;7.00;99.90;;;;;;5102661;28;20112;-67
2022/09/30 01:47:09;;;;;;;7.47;5.57;;;7.00;99.90;;;;;;5092462;28;20111;-67
2022/09/30 01:49:56;;;;;;;6.63;4.95;;;6.90;99.90;;;;;;5108698;28;20497;-67
2022/09/30 01:52:27;;;;;;;14.50;13.00;;;6.80;99.90;;;;;;5107183;28;20043;-67
2022/09/30 01:55:00;;;;;;;14.45;12.57;;;6.90;99.90;;;;;;5107850;28;20431;-67
2022/09/30 01:57:41;;;;;;;14.07;12.55;;;7.00;99.90;;;;;;5100948;28;20052;-67
2022/09/30 02:00:09;;;;;;;8.07;4.85;;;6.90;99.90;;;;;;5092631;28;20090;-67
2022/09/30 02:03:08;;;;;;;9.90;6.50;;;6.80;99.90;;;;;;5103026;28;20048;-67
2022/09/30 02:05:43;;;;;;;15.63;14.13;;;6.80;99.90;;;;;;5101796;28;20078;-67
2022/09/30 02:08:27;;;;;;;6.60;5.10;;;6.80;99.90;;;;;;5100157;28;20050;-68
2022/09/30 02:11:07;;;;;;;6.75;5.05;;;6.80;99.90;;;;;;5104274;28;20047;-67
2022/09/30 02:13:54;;;;;;;5.60;4.45;;;6.80;99.90;;;;;;5099360;28;20408;-67
2022/09/30 02:16:24;;;;;;;9.55;5.60;;;6.70;99.90;;;;;;5106676;28;20101;-67
2022/09/30 02:18:56;;;;;;;15.88;14.35;;;6.70;99.90;;;;;;5099623;28;20055;-67
2022/09/30 02:21:31;;;;;;;7.28;5.38;;;6.70;99.90;;;;;;5097293;28;20423;-67
2022/09/30 02:24:04;;;;;;;14.55;12.93;;;6.80;99.90;;;;;;5097594;28;20040;-67
2022/09/30 02:26:35;;;;;;;10.75;6.85;;;6.80;99.90;;;;;;5108161;28;20484;-67
2022/09/30 02:29:07;;;;;;;9.05;5.35;;;6.70;99.90;;;;;;5098901;28;20051;-67
2022/09/30 02:31:36;;;;;;;13.85;12.45;;;6.70;99.90;;;;;;5096849;28;20075;-67
2022/09/30 02:34:07;;;;;;;7.45;5.15;;;6.70;99.90;;;;;;5104450;28;20381;-67
2022/09/30 02:36:58;;;;;;;9.40;5.53;;;6.60;99.90;;;;;;5104288;28;20204;-67
2022/09/30 02:39:45;;;;;;;6.35;4.45;;;6.60;99.90;;;;;;5103360;28;20047;-68
2022/09/30 02:42:19;;;;;;;6.07;4.50;;;6.60;99.90;;;;;;5099502;28;20052;-67
2022/09/30 02:44:50;;;;;;;14.52;13.20;;;6.60;99.90;;;;;;5093685;28;20163;-67
2022/09/30 02:47:30;;;;;;;14.35;12.93;;;6.60;99.90;;;;;;5105648;28;20051;-67
2022/09/30 02:50:07;;;;;;;8.57;5.85;;;6.60;99.90;;;;;;5102082;28;20485;-68
2022/09/30 02:52:51;;;;;;;5.85;4.60;;;6.60;99.90;;;;;;5105071;28;20539;-67
2022/09/30 02:55:37;;;;;;;7.25;4.82;;;6.50;99.90;;;;;;5106648;28;20052;-67
2022/09/30 02:58:14;;;;;;;13.77;12.45;;;6.40;99.90;;;;;;5097948;28;20096;-67
2022/09/30 03:00:41;;;;;;;6.20;4.32;;;6.40;99.90;;;;;;5100751;28;20052;-68
2022/09/30 03:03:34;;;;;;;6.78;5.32;;;6.40;99.90;;;;;;5106085;28;20060;-67
2022/09/30 03:06:00;;;;;;;7.10;3.97;;;6.40;99.90;;;;;;5107246;28;20878;-67
2022/09/30 03:08:26;;;;;;;15.65;14.07;;;6.30;99.90;;;;;;5094785;28;20101;-67
2022/09/30 03:10:52;;;;;;;9.63;4.88;;;6.40;99.90;;;;;;5090989;28;20047;-68
2022/09/30 03:13:39;;;;;;;14.50;13.00;;;6.40;99.90;;;;;;5095760;28;20508;-67
2022/09/30 03:16:39;;;;;;;8.23;5.90;;;6.40;99.90;;;;;;5102216;28;20058;-68
2022/09/30 03:19:23;;;;;;;6.47;4.30;;;6.40;99.90;;;;;;5093304;28;20186;-67
2022/09/30 03:22:10;;;;;;;6.95;4.38;;;6.30;99.90;;;;;;5107836;28;20104;-67
2022/09/30 03:25:10;;;;;;;13.13;11.77;;;6.30;99.90;;;;;;5097519;28;20499;-67
2022/09/30 03:27:48;;;;;;;5.82;3.63;;;6.30;99.90;;;;;;5083297;28;20461;-67
2022/09/30 03:30:17;;;;;;;5.50;4.03;;;6.30;99.90;;;;;;5097849;28;20080;-68
2022/09/30 03:32:50;;;;;;;4.63;2.80;;;6.20;99.90;;;;;;5102120;28;20496;-67
2022/09/30 03:35:21;;;;;;;3.55;2.70;;;6.10;99.90;;;;;;5098109;28;20048;-67
2022/09/30 03:37:50;;;;;;;11.63;10.65;;;6.10;99.90;;;;;;5094382;28;20047;-67
2022/09/30 03:40:18;;;;;;;8.60;4.72;;;6.10;99.90;;;;;;5098616;28;20104;-67
2022/09/30 03:42:50;;;;;;;12.23;11.02;;;6.10;99.90;;;;;;5088663;28;20055;-67
2022/09/30 03:45:30;;;;;;;7.47;5.20;;;6.10;99.90;;;;;;5092882;28;20078;-67
2022/09/30 03:48:00;;;;;;;5.03;3.80;;;6.10;99.90;;;;;;5095430;28;20126;-67
2022/09/30 03:50:28;;;;;;;5.55;3.72;;;6.00;99.90;;;;;;5106266;28;20123;-67
2022/09/30 03:52:54;;;;;;;10.57;5.15;;;6.00;99.90;;;;;;5092356;28;20048;-67
2022/09/30 03:55:22;;;;;;;5.72;2.95;;;6.00;99.90;;;;;;5101187;28;20048;-68
2022/09/30 03:57:48;;;;;;;12.57;11.38;;;5.90;99.90;;;;;;5106803;28;20090;-67
2022/09/30 04:00:14;;;;;;;8.77;4.43;;;5.90;99.90;;;;;;5106118;28;20127;-67
2022/09/30 04:02:40;;;;;;;10.85;9.85;;;5.90;99.90;;;;;;5107767;28;20126;-67
2022/09/30 04:05:07;;;;;;;6.38;4.75;;;5.90;99.90;;;;;;5092364;28;20097;-68
2022/09/30 04:07:33;;;;;;;4.75;3.00;;;5.90;99.90;;;;;;5092788;28;20051;-67
2022/09/30 04:09:59;;;;;;;14.15;12.85;;;5.80;99.90;;;;;;5104060;28;20120;-68
2022/09/30 04:12:25;;;;;;;8.32;5.32;;;5.90;99.90;;;;;;5088440;28;20052;-67
2022/09/30 04:14:51;;;;;;;7.72;4.60;;;5.80;99.90;;;;;;5104384;27;20036;-67
2022/09/30 04:17:16;;;;;;;14.95;13.50;;;5.80;99.90;;;;;;5100755;28;20666;-67
2022/09/30 04:19:42;;;;;;;14.75;13.27;;;5.80;99.90;;;;;;5090186;28;20048;-67
2022/09/30 04:22:08;;;;;;;9.23;5.32;;;5.80;99.90;;;;;;5110617;28;20063;-68
2022/09/30 04:24:35;;;;;;;7.18;4.85;;;5.80;99.90;;;;;;5108149;28;20048;-68
2022/09/30 04:27:01;;;;;;;4.90;3.30;;;5.80;99.90;;;;;;5093267;28;20040;-67
2022/09/30 04:29:27;;;;;;;5.05;3.85;;;5.70;99.90;;;;;;5098481;28;20556;-68
2022/09/30 04:31:53;;;;;;;5.90;3.92;;;5.60;99.90;;;;;;5104468;28;20122;-67
2022/09/30 04:34:18;;;;;;;6.97;4.00;;;5.50;99.90;;;;;;5109946;28;20514;-67
2022/09/30 04:36:44;;;;;;;7.18;5.68;;;5.50;99.90;;;;;;5103987;28;20085;-67
2022/09/30 04:39:09;;;;;;;9.70;6.55;;;5.50;99.90;;;;;;5107778;28;20411;-67
2022/09/30 04:41:35;;;;;;;10.95;5.60;;;5.50;99.90;;;;;;5110329;28;20035;-68
2022/09/30 04:44:05;;;;;;;5.15;3.88;;;5.50;99.90;;;;;;5109389;28;20035;-68
2022/09/30 04:46:33;;;;;;;14.25;12.82;;;5.40;99.90;;;;;;5108647;28;20061;-67
2022/09/30 04:48:59;;;;;;;8.70;4.40;;;5.40;99.90;;;;;;5089625;28;20067;-67
2022/09/30 04:51:25;;;;;;;14.82;12.93;;;5.40;99.90;;;;;;5094020;28;20067;-67
2022/09/30 04:53:51;;;;;;;7.45;4.75;;;5.40;99.90;;;;;;5105056;28;20048;-68
2022/09/30 04:56:17;;;;;;;13.13;5.53;;;5.50;99.90;;;;;;5109167;28;20039;-67
2022/09/30 04:58:43;;;;;;;6.22;5.18;;;5.40;99.90;;;;;;5108290;28;20043;-68
2022/09/30 05:01:14;;;;;;;5.25;4.13;;;5.40;99.90;;;;;;5095482;28;20036;-68
2022/09/30 05:03:40;;;;;;;16.95;15.18;;;5.30;99.90;;;;;;5102677;28;20839;-67
2022/09/30 05:06:06;;;;;;;4.90;3.90;;;5.30;99.90;;;;;;5102213;28;20150;-67
2022/09/30 05:08:32;;;;;;;7.00;4.90;;;5.20;99.90;;;;;;5089312;28;20044;-67
2022/09/30 05:11:00;;;;;;;14.57;13.13;;;5.20;99.90;;;;;;5098701;28;20122;-67
2022/09/30 05:13:31;;;;;;;4.22;3.15;;;5.20;99.90;;;;;;5108091;28;20475;-68
2022/09/30 05:15:57;;;;;;;4.93;3.47;;;5.20;99.90;;;;;;5094755;28;20043;-68
2022/09/30 05:18:25;;;;;;;9.32;5.75;;;5.20;99.90;;;;;;5107155;28;20104;-68
2022/09/30 05:20:53;;;;;;;6.53;5.20;;;5.10;99.90;;;;;;5107287;28;20420;-68
2022/09/30 05:23:19;;;;;;;9.23;7.25;;;5.20;99.90;;;;;;5107619;28;20052;-67
2022/09/30 05:25:45;;;;;;;14.02;12.73;;;5.10;99.90;;;;;;5105698;28;20044;-68
2022/09/30 05:28:11;;;;;;;14.73;12.63;;;5.20;99.90;;;;;;5086253;28;20054;-67
2022/09/30 05:30:37;;;;;;;10.82;6.50;;;5.30;99.90;;;;;;5094483;28;20040;-67
2022/09/30 05:33:03;;;;;;;7.13;5.22;;;5.20;99.90;;;;;;5097083;28;20062;-68
2022/09/30 05:35:30;;;;;;;15.85;4.53;;;5.20;99.90;;;;;;5088123;28;20048;-67
2022/09/30 05:37:56;;;;;;;6.55;4.20;;;5.20;99.90;;;;;;5087672;28;20113;-67
2022/09/30 05:40:21;;;;;;;6.95;5.00;;;5.20;99.90;;;;;;5097307;28;20523;-67
2022/09/30 05:42:47;;;;;;;5.22;3.60;;;5.20;99.90;;;;;;5086062;28;20048;-68
2022/09/30 05:45:13;;;;;;;16.90;14.40;;;5.20;99.90;;;;;;5092140;28;20082;-68
2022/09/30 05:47:38;;;;;;;19.08;17.10;;;5.30;99.90;;;;;;5098342;28;20036;-67
2022/09/30 05:50:05;;;;;;;7.95;4.50;;;5.30;99.90;;;;;;5103394;28;20054;-67
2022/09/30 05:52:31;;;;;;;10.80;5.80;;;5.40;99.90;;;;;;5095411;28;20071;-67
2022/09/30 05:54:59;;;;;;;14.00;12.65;;;5.30;99.90;;;;;;5107107;28;20131;-67
2022/09/30 05:57:28;;;;;;;8.13;5.50;;;5.40;99.90;;;;;;5107548;28;20453;-67
2022/09/30 05:59:56;;;;;;;14.60;13.25;;;5.30;99.90;;;;;;5104516;28;20472;-67
2022/09/30 06:02:22;;;;;;;8.57;4.93;;;5.40;99.90;;;;;;5095191;28;20420;-67
2022/09/30 06:04:49;;;;;;;6.72;5.03;;;5.40;99.90;;;;;;5094253;28;20050;-67
2022/09/30 06:07:16;;;;;;;4.72;4.03;;;5.40;99.90;;;;;;5090121;28;20130;-67
2022/09/30 06:09:42;;;;;;;14.43;13.07;;;5.50;99.90;;;;;;5099533;28;20077;-67
2022/09/30 06:12:08;;;;;;;16.80;15.23;;;5.60;99.90;;;;;;5094966;28;20181;-67
2022/09/30 06:14:34;;;;;;;12.50;7.18;;;5.70;99.90;;;;;;5098988;28;20476;-67
2022/09/30 06:16:59;;;;;;;8.85;5.75;;;5.90;99.90;;;;;;5091608;28;20048;-67
2022/09/30 06:19:29;;;;;;;9.35;5.32;;;5.90;99.90;;;;;;5097986;28;20054;-68
2022/09/30 06:21:59;;;;;;;9.75;6.20;;;6.00;99.90;;;;;;5107563;28;20100;-67
2022/09/30 06:24:25;;;;;;;18.15;16.35;;;6.10;99.90;;;;;;5083156;28;20035;-67
2022/09/30 06:26:50;;;;;;;7.80;6.85;;;6.30;99.90;;;;;;5090636;28;20044;-67
2022/09/30 06:29:16;;;;;;;9.32;6.03;;;6.40;99.90;;;;;;5102573;28;20036;-67
2022/09/30 06:31:42;;;;;;;9.02;6.70;;;6.50;99.90;;;;;;5106791;28;20046;-67
2022/09/30 06:34:09;;;;;;;6.85;5.43;;;6.60;99.90;;;;;;5106429;28;20058;-67
2022/09/30 06:36:36;;;;;;;7.25;5.82;;;6.60;99.90;;;;;;5100679;28;20951;-68
2022/09/30 06:39:03;;;;;;;15.68;6.25;;;6.70;99.90;;;;;;5104191;28;20075;-68
2022/09/30 06:41:29;;;;;;;15.95;14.48;;;6.80;99.90;;;;;;5092316;28;20078;-67
2022/09/30 06:43:56;;;;;;;8.77;5.57;;;6.80;99.90;;;;;;5106326;28;20173;-68
2022/09/30 06:46:23;;;;;;;8.75;5.13;;;6.90;99.90;;;;;;5101062;28;20508;-67
2022/09/30 06:48:53;;;;;;;7.40;4.35;;;7.00;99.90;;;;;;5097724;28;20044;-68
2022/09/30 06:51:19;;;;;;;6.55;5.13;;;7.00;99.90;;;;;;5101076;28;20052;-67
2022/09/30 06:53:45;;;;;;;6.20;4.65;;;7.00;99.90;;;;;;5092335;28;20864;-67
2022/09/30 06:56:11;;;;;;;16.75;15.00;;;7.00;99.90;;;;;;5090667;28;20043;-68
2022/09/30 06:58:38;;;;;;;17.52;9.00;;;7.10;99.90;;;;;;5087599;28;20184;-68
2022/09/30 07:01:05;;;;;;;27.52;23.33;;;7.10;99.90;;;;;;5093661;28;20058;-67
2022/09/30 07:03:33;;;;;;;14.60;9.13;;;7.20;99.90;;;;;;5097181;28;20879;-67
2022/09/30 07:06:01;;;;;;;22.02;10.57;;;7.20;99.90;;;;;;5088503;28;20493;-67
2022/09/30 07:08:30;;;;;;;19.75;11.82;;;7.20;99.90;;;;;;5098150;28;20048;-67
2022/09/30 07:10:57;;;;;;;43.83;34.05;;;7.30;99.90;;;;;;5092973;28;20052;-67
2022/09/30 07:13:22;;;;;;;49.22;38.70;;;7.80;99.90;;;;;;5096636;28;20063;-67
2022/09/30 07:15:51;;;;;;;52.50;38.03;;;7.40;99.90;;;;;;5092087;28;20475;-68
2022/09/30 07:18:19;;;;;;;30.02;14.20;;;7.50;99.90;;;;;;5096837;28;20508;-67
2022/09/30 07:20:49;;;;;;;21.90;13.68;;;7.60;99.90;;;;;;5103595;28;20063;-68
2022/09/30 07:23:15;;;;;;;20.73;10.50;;;7.70;99.90;;;;;;5107450;28;20040;-67
2022/09/30 07:25:53;;;;;;;27.63;14.18;;;7.70;99.90;;;;;;5092736;28;20549;-67
2022/09/30 07:28:18;;;;;;;22.40;10.68;;;7.80;99.90;;;;;;5097889;28;20045;-67
2022/09/30 07:30:44;;;;;;;31.10;13.60;;;7.90;99.90;;;;;;5101799;28;20031;-68
2022/09/30 07:33:15;;;;;;;20.38;10.20;;;8.00;99.90;;;;;;5095939;28;20127;-67
2022/09/30 07:35:49;;;;;;;53.50;40.67;;;8.00;99.90;;;;;;5104181;28;20035;-68
2022/09/30 07:38:16;;;;;;;23.63;11.07;;;8.10;99.90;;;;;;5108214;28;20075;-67
2022/09/30 07:40:49;;;;;;;24.15;13.30;;;8.10;99.90;;;;;;5104828;28;20093;-68
2022/09/30 07:43:17;;;;;;;58.22;39.78;;;8.30;99.90;;;;;;5106888;28;20100;-68
2022/09/30 07:45:43;;;;;;;26.52;15.38;;;8.30;99.90;;;;;;5105918;28;20052;-68
2022/09/30 07:48:38;;;;;;;23.95;12.75;;;8.40;99.90;;;;;;5105754;28;20443;-68
2022/09/30 07:50:55;;;;;;;31.65;13.70;;;8.50;99.90;;;;;;5091830;28;20505;-68
2022/09/30 07:53:20;;;;;;;30.77;14.00;;;8.60;99.90;;;;;;5111249;28;20073;-68
2022/09/30 07:55:46;;;;;;;61.72;38.80;;;8.70;99.90;;;;;;5106680;28;20047;-68
2022/09/30 07:58:12;;;;;;;62.15;39.38;;;8.90;99.90;;;;;;5108033;28;20047;-68
2022/09/30 08:00:38;;;;;;;56.88;38.38;;;9.10;99.90;;;;;;5110337;28;20047;-68
2022/09/30 08:03:03;;;;;;;55.88;39.55;;;9.30;99.90;;;;;;5107223;28;20423;-68
2022/09/30 08:05:29;;;;;;;59.15;38.35;;;9.40;99.90;;;;;;5106316;28;20462;-68
2022/09/30 08:07:55;;;;;;;57.00;37.35;;;9.60;99.90;;;;;;5108895;28;20035;-68
2022/09/30 08:10:21;;;;;;;28.10;12.65;;;9.60;99.90;;;;;;5090219;28;20048;-68
2022/09/30 08:12:47;;;;;;;29.60;14.05;;;9.70;99.90;;;;;;5094821;28;20066;-68
2022/09/30 08:15:12;;;;;;;55.28;37.50;;;9.80;99.90;;;;;;5103852;28;20046;-68
2022/09/30 08:17:38;;;;;;;39.42;15.38;;;10.00;99.90;;;;;;5106821;28;20050;-68
2022/09/30 08:20:04;;;;;;;29.55;11.93;;;10.10;99.90;;;;;;5110387;28;20048;-68
2022/09/30 08:22:30;;;;;;;18.88;10.90;;;10.20;99.90;;;;;;5093720;28;20123;-68
2022/09/30 08:24:55;;;;;;;46.90;32.15;;;10.30;99.90;;;;;;5097582;28;20143;-68
2022/09/30 08:27:21;;;;;;;42.60;28.42;;;10.40;99.90;;;;;;5110296;28;20096;-68
2022/09/30 08:29:46;;;;;;;41.17;28.73;;;10.50;99.90;;;;;;5104708;28;20122;-68
2022/09/30 08:32:12;;;;;;;18.65;9.60;;;10.60;99.90;;;;;;5103634;28;20052;-68
2022/09/30 08:34:37;;;;;;;38.67;28.02;;;10.60;99.90;;;;;;5108592;28;20040;-68
2022/09/30 08:37:04;;;;;;;39.70;28.23;;;10.70;99.90;;;;;;5098678;28;20445;-68
2022/09/30 08:39:29;;;;;;;46.72;29.13;;;10.70;99.90;;;;;;5091762;28;20050;-68
2022/09/30 08:42:08;;;;;;;48.13;29.70;;;10.90;99.90;;;;;;5092786;28;20448;-68
2022/09/30 08:44:44;;;;;;;52.58;32.20;;;10.90;99.90;;;;;;5091291;28;20127;-68
2022/09/30 08:47:31;;;;;;;49.30;30.58;;;11.00;99.90;;;;;;5099125;28;20108;-68
2022/09/30 08:50:34;;;;;;;48.43;29.93;;;11.10;99.90;;;;;;5102664;28;20047;-68
2022/09/30 08:53:08;;;;;;;46.38;26.63;;;11.20;99.90;;;;;;5103576;28;20565;-68
2022/09/30 08:55:45;;;;;;;22.00;10.30;;;11.20;99.90;;;;;;5106226;28;20534;-68
2022/09/30 08:58:25;;;;;;;45.03;27.10;;;11.30;99.90;;;;;;5098817;28;20047;-68
2022/09/30 09:00:57;;;;;;;44.67;27.05;;;11.30;99.90;;;;;;5088715;28;20066;-69
2022/09/30 09:03:28;;;;;;;45.42;27.60;;;11.50;99.90;;;;;;5100191;28;20047;-68
2022/09/30 09:06:11;;;;;;;43.55;26.38;;;11.60;99.90;;;;;;5105648;28;20654;-68
2022/09/30 09:09:05;;;;;;;40.53;26.27;;;11.80;99.90;;;;;;5099933;28;20047;-68
2022/09/30 09:12:04;;;;;;;45.92;28.00;;;11.90;99.90;;;;;;5101370;28;20480;-68
2022/09/30 09:14:53;;;;;;;41.20;24.77;;;12.00;99.90;;;;;;5089534;28;20048;-68
2022/09/30 09:17:29;;;;;;;24.50;11.35;;;12.10;99.90;;;;;;5105766;28;20054;-68
2022/09/30 09:20:00;;;;;;;46.47;27.08;;;12.30;99.90;;;;;;5105437;28;20739;-68
2022/09/30 09:22:29;;;;;;;35.05;21.92;;;12.40;99.90;;;;;;5097282;28;20079;-68
2022/09/30 09:24:55;;;;;;;37.38;24.08;;;12.70;99.90;;;;;;5097657;28;20035;-68
2022/09/30 09:27:50;;;;;;;31.88;20.95;;;13.00;99.90;;;;;;5108611;28;20044;-68
2022/09/30 09:30:21;;;;;;;34.90;20.98;;;13.40;99.90;;;;;;5100005;28;20496;-68
2022/09/30 09:33:01;;;;;;;28.67;19.10;;;13.60;99.90;;;;;;5108442;28;20044;-68
2022/09/30 09:35:46;;;;;;;32.60;20.45;;;13.90;99.90;;;;;;5104527;28;20058;-68
2022/09/30 09:38:47;;;;;;;31.60;20.15;;;14.10;99.90;;;;;;5071801;28;20124;-68
2022/09/30 09:41:25;;;;;;;31.70;19.70;;;14.40;99.90;;;;;;5088367;28;21087;-68
2022/09/30 09:44:01;;;;;;;29.75;19.83;;;14.70;99.90;;;;;;5093112;28;20101;-68
2022/09/30 09:46:34;;;;;;;28.92;17.20;;;15.00;99.90;;;;;;5101728;28;20047;-67
2022/09/30 09:49:20;;;;;;;19.40;15.18;;;15.20;99.90;;;;;;5097746;28;20084;-68
2022/09/30 09:51:58;;;;;;;25.98;18.20;;;15.20;99.90;;;;;;5100407;28;20043;-68
2022/09/30 09:54:29;;;;;;;22.73;13.85;;;15.50;99.90;;;;;;5098853;28;20070;-67
2022/09/30 09:56:55;;;;;;;25.73;14.55;;;15.90;99.90;;;;;;5092407;28;20064;-68
2022/09/30 09:59:21;;;;;;;29.63;15.10;;;16.00;99.90;;;;;;5094842;28;20146;-68
2022/09/30 10:01:52;;;;;;;21.48;13.13;;;16.40;99.90;;;;;;5107452;28;20483;-68
2022/09/30 10:04:29;;;;;;;18.35;11.20;;;16.80;99.90;;;;;;5101321;28;20070;-68
2022/09/30 10:07:21;;;;;;;13.15;9.60;;;16.60;99.90;;;;;;5101508;28;20484;-68
2022/09/30 10:09:47;;;;;;;11.60;9.77;;;16.70;99.90;;;;;;5093796;28;20056;-68
2022/09/30 10:12:12;;;;;;;9.75;8.55;;;16.90;99.90;;;;;;5102719;28;20061;-68
2022/09/30 10:15:02;;;;;;;13.05;10.18;;;17.00;99.90;;;;;;5095563;28;20046;-68
2022/09/30 10:17:31;;;;;;;13.60;9.75;;;17.10;99.90;;;;;;5100142;28;20908;-68
2022/09/30 10:20:06;;;;;;;11.52;10.05;;;17.30;99.90;;;;;;5096124;28;20044;-69
2022/09/30 10:22:34;;;;;;;15.13;10.40;;;17.40;99.90;;;;;;5107727;28;20055;-68
2022/09/30 10:25:18;;;;;;;17.27;9.63;;;17.50;99.90;;;;;;5101469;28;20172;-68
2022/09/30 10:28:23;;;;;;;17.25;10.27;;;17.70;99.90;;;;;;5106460;28;20474;-68
2022/09/30 10:30:55;;;;;;;10.45;9.35;;;17.70;99.90;;;;;;5099865;28;20421;-68
2022/09/30 10:33:43;;;;;;;11.95;9.80;;;17.80;99.90;;;;;;5091796;28;20063;-68
2022/09/30 10:36:18;;;;;;;13.57;9.00;;;17.60;99.90;;;;;;5101140;28;20108;-68
2022/09/30 10:38:56;;;;;;;13.60;8.20;;;17.80;99.90;;;;;;5092897;28;20511;-68
2022/09/30 10:41:26;;;;;;;15.57;8.52;;;17.90;99.90;;;;;;5107764;28;20046;-68
2022/09/30 10:43:55;;;;;;;9.82;7.63;;;18.00;99.90;;;;;;5088383;28;20050;-68
2022/09/30 10:46:24;;;;;;;9.52;8.38;;;18.00;99.90;;;;;;5093021;28;20047;-68
2022/09/30 10:48:53;;;;;;;10.52;9.20;;;18.30;99.90;;;;;;5094793;28;20111;-68
2022/09/30 10:51:28;;;;;;;10.40;9.07;;;18.30;99.90;;;;;;5098811;28;20052;-68
2022/09/30 10:53:54;;;;;;;11.63;10.48;;;18.40;99.90;;;;;;5100900;28;20401;-68
2022/09/30 10:56:41;;;;;;;12.68;11.35;;;18.40;99.90;;;;;;5107170;28;20055;-69
2022/09/30 10:59:21;;;;;;;11.95;9.13;;;18.50;99.90;;;;;;5087406;28;20073;-69
2022/09/30 11:01:58;;;;;;;14.43;12.40;;;18.50;99.90;;;;;;5103689;28;20036;-69
2022/09/30 11:04:34;;;;;;;13.95;12.15;;;18.60;99.90;;;;;;5099962;28;20060;-70
2022/09/30 11:07:42;;;;;;;14.75;13.25;;;18.60;99.90;;;;;;5107391;28;20051;-69
2022/09/30 11:10:52;;;;;;;20.45;14.48;;;18.60;99.90;;;;;;5080085;28;20498;-70
2022/09/30 11:13:35;;;;;;;16.58;14.88;;;18.50;99.90;;;;;;5057754;28;20056;-69
2022/09/30 11:16:25;;;;;;;19.48;15.65;;;18.50;99.90;;;;;;5110210;28;20051;-70
2022/09/30 11:19:06;;;;;;;22.23;16.33;;;18.40;99.90;;;;;;5091450;28;20130;-70
2022/09/30 11:21:35;;;;;;;19.95;17.50;;;18.40;99.90;;;;;;5098853;28;20055;-70
2022/09/30 11:24:12;;;;;;;20.10;16.05;;;18.30;99.90;;;;;;5109745;28;20048;-70
2022/09/30 11:26:43;;;;;;;;;;;18.40;99.90;;;;;;5104452;28;20048;-71
2022/09/30 11:29:35;;;;;;;19.00;16.90;;;18.20;99.90;;;;;;5103841;28;19952;-70
2022/09/30 11:32:30;;;;;;;17.63;15.82;;;18.20;99.90;;;;;;5089615;28;20052;-71
2022/09/30 11:35:27;;;;;;;16.23;14.55;;;18.20;99.90;;;;;;5109256;28;20047;-71
2022/09/30 11:38:21;;;;;;;16.45;12.85;;;18.10;99.90;;;;;;5105875;28;20138;-71
2022/09/30 11:40:58;;;;;;;12.60;9.98;;;18.20;99.90;;;;;;5107856;28;20423;-71
2022/09/30 11:43:50;;;;;;;12.70;10.57;;;18.10;99.90;;;;;;5110646;28;20051;-71
2022/09/30 11:46:35;;;;;;;11.18;9.73;;;18.00;99.90;;;;;;5105111;28;20082;-71
2022/09/30 11:49:13;;;;;;;11.00;9.07;;;18.00;99.90;;;;;;5087975;28;20114;-71
2022/09/30 11:51:48;;;;;;;;;;;17.90;99.90;;;;;;5086308;28;20039;-71
2022/09/30 11:54:56;;;;;;;9.38;8.48;;;17.90;99.90;;;;;;5108484;28;19935;-71
2022/09/30 11:57:49;;;;;;;9.38;8.48;;;18.00;99.90;;;;;;5096188;28;20114;-71
2022/09/30 12:00:17;;;;;;;13.00;8.30;;;18.20;99.90;;;;;;5098788;28;20060;-71
2022/09/30 12:02:49;;;;;;;13.13;8.80;;;18.20;99.90;;;;;;5102002;28;20055;-71
2022/09/30 12:05:27;;;;;;;10.43;9.00;;;18.30;99.90;;;;;;5098245;28;20471;-71
2022/09/30 12:08:02;;;;;;;10.60;9.20;;;18.20;99.90;;;;;;5101439;28;20118;-71
2022/09/30 12:10:32;;;;;;;15.07;10.27;;;18.20;99.90;;;;;;5102299;28;20054;-70
2022/09/30 12:13:15;;;;;;;14.00;9.55;;;18.00;99.90;;;;;;5105419;28;20529;-71
2022/09/30 12:15:43;;;;;;;12.55;8.80;;;18.00;99.90;;;;;;5100484;28;20062;-71
2022/09/30 12:18:38;;;;;;;10.30;8.77;;;17.90;99.90;;;;;;5112693;27;20046;-71
2022/09/30 12:21:31;;;;;;;11.48;9.43;;;17.80;99.90;;;;;;5104638;28;20501;-71
2022/09/30 12:24:32;;;;;;;10.88;8.73;;;17.70;99.90;;;;;;5107539;28;20051;-71
2022/09/30 12:27:00;;;;;;;10.85;9.52;;;17.60;99.90;;;;;;5099188;28;20044;-70
2022/09/30 12:32:36;;;;;;;12.13;10.15;;;17.50;99.90;;;;;;5101405;27;20052;-70
2022/09/30 12:35:29;;;;;;;15.63;9.75;;;17.50;99.90;;;;;;5102805;28;20054;-70
2022/09/30 12:38:19;;;;;;;16.83;13.55;;;17.60;99.90;;;;;;5099527;28;20082;-71
2022/09/30 12:41:15;;;;;;;21.60;15.88;;;17.80;99.90;;;;;;5109000;28;20044;-71
2022/09/30 12:44:08;;;;;;;17.88;15.98;;;17.80;98.60;;;;;;5115976;27;20095;-71
2022/09/30 12:46:57;;;;;;;19.88;16.38;;;17.60;99.20;;;;;;5108332;28;20059;-71
2022/09/30 12:49:27;;;;;;;24.42;16.10;;;17.70;97.40;;;;;;5101642;28;20408;-71
2022/09/30 12:51:57;;;;;;;17.20;14.90;;;17.60;99.40;;;;;;5096154;27;20039;-71
2022/09/30 12:54:33;;;;;;;27.73;17.75;;;17.80;99.90;;;;;;5099028;28;20040;-71
2022/09/30 12:57:02;;;;;;;20.92;17.60;;;17.80;99.80;;;;;;5100702;27;20052;-71
2022/09/30 12:59:33;;;;;;;19.50;17.27;;;17.80;98.40;;;;;;5099239;28;20062;-70
2022/09/30 13:02:02;;;;;;;19.67;16.50;;;17.80;97.90;;;;;;5104219;28;20047;-70
2022/09/30 13:04:41;;;;;;;21.30;17.88;;;17.70;98.10;;;;;;5108258;28;20043;-70
2022/09/30 13:07:10;;;;;;;25.73;19.08;;;17.70;97.70;;;;;;5094636;28;20051;-70
2022/09/30 13:09:55;;;;;;;19.60;17.52;;;17.70;96.80;;;;;;5104858;27;20044;-70
2022/09/30 13:12:42;;;;;;;23.90;19.00;;;17.70;97.20;;;;;;5109084;28;20052;-70
2022/09/30 13:15:39;;;;;;;19.20;17.13;;;17.80;96.90;;;;;;5098410;28;20052;-70
2022/09/30 13:18:25;;;;;;;16.25;14.30;;;17.80;96.80;;;;;;5090560;28;20126;-70
2022/09/30 13:21:03;;;;;;;16.88;14.70;;;17.70;96.70;;;;;;5104205;28;20055;-70